createdAt,value
2023-06-11T00:02:21.422Z,40.50
2023-06-11T00:04:48.273Z,40.60
2023-06-11T00:07:15.084Z,40.50
2023-06-11T00:09:41.845Z,40.80
2023-06-11T00:12:09.112Z,40.60
2023-06-11T00:14:35.896Z,40.70
2023-06-11T00:17:02.822Z,40.70
2023-06-11T00:19:37.499Z,40.40
2023-06-11T00:22:04.774Z,40.60
2023-06-11T00:24:31.486Z,40.40
2023-06-11T00:26:58.255Z,41.40
2023-06-11T00:29:24.988Z,40.50
2023-06-11T00:31:51.771Z,40.30
2023-06-11T00:34:18.602Z,40.50
2023-06-11T00:36:46.760Z,40.30
2023-06-11T00:39:13.757Z,40.40
2023-06-11T00:41:40.616Z,40.40
2023-06-11T00:44:07.378Z,40.40
2023-06-11T00:46:34.131Z,40.60
2023-06-11T00:49:00.916Z,40.60
2023-06-11T00:51:27.853Z,40.40
2023-06-11T00:53:55.943Z,40.40
2023-06-11T00:56:22.688Z,40.40
2023-06-11T00:58:50.307Z,40.50
2023-06-11T01:01:26.144Z,40.30
2023-06-11T01:03:55.498Z,40.40
2023-06-11T01:06:25.692Z,40.40
2023-06-11T01:08:53.870Z,40.60
2023-06-11T01:11:22.166Z,40.50
2023-06-11T01:13:49.010Z,40.60
2023-06-11T01:16:20.950Z,40.60
2023-06-11T01:18:54.931Z,40.70
2023-06-11T01:21:29.051Z,40.50
2023-06-11T01:24:07.022Z,40.50
2023-06-11T01:26:44.775Z,41.10
2023-06-11T01:29:15.902Z,40.50
2023-06-11T01:31:43.846Z,40.70
2023-06-11T01:34:10.790Z,40.90
2023-06-11T01:36:37.565Z,41.00
2023-06-11T01:39:04.828Z,41.00
2023-06-11T01:41:31.719Z,41.10
2023-06-11T01:43:58.431Z,41.00
2023-06-11T01:46:26.574Z,41.30
2023-06-11T01:48:53.401Z,41.10
2023-06-11T01:51:20.235Z,41.10
2023-06-11T01:53:46.961Z,41.50
2023-06-11T01:56:13.716Z,41.10
2023-06-11T01:58:40.470Z,42.00
2023-06-11T02:01:07.194Z,41.30
2023-06-11T02:03:35.373Z,42.40
2023-06-11T02:06:02.192Z,41.30
2023-06-11T02:08:28.942Z,42.00
2023-06-11T02:10:55.693Z,41.80
2023-06-11T02:13:22.473Z,42.00
2023-06-11T02:15:49.191Z,42.10
2023-06-11T02:18:15.883Z,41.60
2023-06-11T02:20:44.029Z,41.80
2023-06-11T02:23:10.786Z,41.70
2023-06-11T02:25:37.495Z,41.50
2023-06-11T02:28:06.331Z,42.30
2023-06-11T02:30:33.106Z,41.60
2023-06-11T02:32:59.981Z,41.50
2023-06-11T02:35:26.777Z,41.90
2023-06-11T02:37:54.816Z,41.70
2023-06-11T02:40:21.552Z,42.80
2023-06-11T02:42:48.305Z,41.70
2023-06-11T02:45:15.139Z,41.70
2023-06-11T02:47:41.956Z,41.70
2023-06-11T02:50:08.910Z,43.00
2023-06-11T02:52:35.629Z,41.90
2023-06-11T02:55:04.174Z,42.20
2023-06-11T02:57:30.936Z,42.70
2023-06-11T02:59:57.657Z,42.30
2023-06-11T03:02:24.450Z,42.00
2023-06-11T03:04:51.155Z,41.90
2023-06-11T03:07:18.050Z,41.90
2023-06-11T03:09:44.783Z,42.60
2023-06-11T03:12:12.910Z,42.20
2023-06-11T03:14:39.668Z,42.60
2023-06-11T03:17:06.373Z,42.00
2023-06-11T03:19:33.140Z,42.50
2023-06-11T03:21:59.891Z,42.60
2023-06-11T03:24:26.646Z,42.00
2023-06-11T03:26:53.523Z,42.70
2023-06-11T03:29:21.588Z,42.00
2023-06-11T03:31:48.507Z,42.20
2023-06-11T03:34:15.432Z,42.30
2023-06-11T03:36:42.134Z,42.50
2023-06-11T03:39:08.941Z,42.80
2023-06-11T03:41:35.741Z,42.40
2023-06-11T03:44:02.493Z,42.30
2023-06-11T03:46:30.599Z,42.20
2023-06-11T03:48:57.848Z,42.40
2023-06-11T03:51:24.630Z,42.30
2023-06-11T03:53:51.385Z,43.10
2023-06-11T03:56:18.158Z,42.80
2023-06-11T03:58:44.868Z,42.50
2023-06-11T04:01:11.550Z,43.10
2023-06-11T04:03:39.675Z,42.60
2023-06-11T04:06:06.414Z,42.90
2023-06-11T04:08:33.106Z,42.80
2023-06-11T04:11:00.031Z,42.20
2023-06-11T04:13:26.780Z,42.30
2023-06-11T04:15:53.922Z,42.10
2023-06-11T04:18:20.969Z,42.50
2023-06-11T04:20:49.151Z,41.90
2023-06-11T04:23:15.881Z,42.20
2023-06-11T04:25:42.610Z,42.50
2023-06-11T04:28:09.395Z,42.10
2023-06-11T04:30:36.233Z,42.70
2023-06-11T04:33:03.176Z,42.00
2023-06-11T04:35:30.091Z,42.70
2023-06-11T04:37:58.169Z,41.70
2023-06-11T04:40:25.173Z,41.80
2023-06-11T04:42:51.921Z,42.10
2023-06-11T04:45:18.600Z,41.80
2023-06-11T04:47:45.884Z,41.80
2023-06-11T04:50:13.229Z,41.70
2023-06-11T04:52:40.060Z,41.70
2023-06-11T04:55:09.229Z,41.70
2023-06-11T04:57:36.665Z,42.00
2023-06-11T05:00:04.336Z,42.00
2023-06-11T05:02:31.269Z,42.20
2023-06-11T05:04:58.083Z,42.00
2023-06-11T05:07:24.852Z,42.10
2023-06-11T05:09:51.740Z,41.80
2023-06-11T05:12:19.982Z,41.60
2023-06-11T05:14:46.812Z,41.70
2023-06-11T05:17:13.614Z,41.90
2023-06-11T05:19:40.531Z,41.70
2023-06-11T05:22:07.510Z,41.60
2023-06-11T05:24:34.385Z,41.50
2023-06-11T05:27:01.620Z,41.30
2023-06-11T05:29:29.773Z,41.30
2023-06-11T05:31:56.773Z,41.10
2023-06-11T05:34:23.831Z,41.20
2023-06-11T05:36:50.597Z,41.00
2023-06-11T05:39:17.318Z,40.90
2023-06-11T05:41:44.264Z,40.70
2023-06-11T05:44:11.088Z,40.60
2023-06-11T05:46:39.235Z,40.30
2023-06-11T05:49:06.057Z,40.50
2023-06-11T05:51:32.903Z,40.50
2023-06-11T05:53:59.711Z,40.50
2023-06-11T05:56:26.499Z,40.00
2023-06-11T05:58:53.398Z,39.60
2023-06-11T06:01:20.137Z,39.60
2023-06-11T06:03:48.547Z,39.60
2023-06-11T06:06:15.560Z,39.30
2023-06-11T06:08:44.672Z,39.30
2023-06-11T06:11:12.378Z,39.30
2023-06-11T06:13:39.263Z,39.00
2023-06-11T06:16:06.236Z,38.80
2023-06-11T06:18:33.001Z,38.60
2023-06-11T06:21:01.338Z,38.40
2023-06-11T06:23:28.127Z,38.00
2023-06-11T06:25:54.950Z,38.20
2023-06-11T06:28:21.848Z,38.10
2023-06-11T06:30:48.636Z,38.20
2023-06-11T06:33:15.582Z,37.80
2023-06-11T06:35:42.606Z,37.40
2023-06-11T06:38:10.847Z,37.20
2023-06-11T06:40:37.918Z,37.10
2023-06-11T06:43:04.926Z,37.30
2023-06-11T06:45:31.854Z,36.80
2023-06-11T06:47:58.752Z,37.00
2023-06-11T06:50:25.758Z,36.90
2023-06-11T06:52:52.582Z,36.90
2023-06-11T06:55:20.770Z,36.10
2023-06-11T06:57:47.596Z,36.50
2023-06-11T07:00:15.431Z,36.70
2023-06-11T07:02:42.302Z,36.40
2023-06-11T07:05:09.636Z,36.10
2023-06-11T07:07:36.517Z,36.30
2023-06-11T07:10:03.639Z,36.00
2023-06-11T07:12:31.759Z,35.70
2023-06-11T07:14:58.811Z,35.30
2023-06-11T07:17:25.664Z,35.20
2023-06-11T07:19:52.601Z,35.30
2023-06-11T07:22:19.363Z,35.00
2023-06-11T07:24:46.231Z,33.50
2023-06-11T07:27:13.033Z,34.10
2023-06-11T07:29:41.515Z,34.60
2023-06-11T07:32:08.899Z,34.30
2023-06-11T07:34:35.889Z,34.10
2023-06-11T07:37:02.701Z,33.80
2023-06-11T07:39:29.503Z,34.30
2023-06-11T07:41:56.395Z,34.30
2023-06-11T07:44:23.166Z,33.80
2023-06-11T07:46:51.436Z,33.80
2023-06-11T07:49:18.468Z,33.40
2023-06-11T07:51:45.346Z,33.50
2023-06-11T07:54:12.209Z,33.00
2023-06-11T07:56:39.055Z,32.70
2023-06-11T07:59:05.809Z,32.50
2023-06-11T08:01:32.616Z,32.50
2023-06-11T08:04:00.840Z,32.30
2023-06-11T08:06:27.634Z,32.30
2023-06-11T08:08:54.400Z,32.10
2023-06-11T08:11:21.303Z,31.90
2023-06-11T08:13:48.396Z,31.70
2023-06-11T08:16:15.284Z,31.90
2023-06-11T08:18:42.181Z,31.50
2023-06-11T08:21:10.544Z,31.00
2023-06-11T08:23:39.081Z,30.90
2023-06-11T08:26:06.059Z,30.80
2023-06-11T08:28:32.900Z,30.80
2023-06-11T08:30:59.662Z,31.00
2023-06-11T08:33:26.632Z,30.70
2023-06-11T08:35:53.414Z,30.40
2023-06-11T08:38:21.643Z,30.50
2023-06-11T08:40:48.515Z,30.40
2023-06-11T08:43:15.378Z,30.90
2023-06-11T08:45:42.600Z,30.20
2023-06-11T08:48:10.040Z,29.90
2023-06-11T08:50:37.333Z,28.90
2023-06-11T08:53:04.533Z,29.50
2023-06-11T08:55:32.715Z,29.40
2023-06-11T08:57:59.498Z,29.80
2023-06-11T09:00:26.299Z,30.10
2023-06-11T09:02:53.927Z,28.50
2023-06-11T09:05:20.824Z,27.90
2023-06-11T09:07:51.022Z,27.40
2023-06-11T09:10:18.322Z,27.90
2023-06-11T09:12:46.882Z,27.90
2023-06-11T09:15:14.231Z,27.80
2023-06-11T09:17:44.012Z,28.00
2023-06-11T09:20:12.813Z,28.20
2023-06-11T09:22:42.925Z,27.60
2023-06-11T09:25:11.864Z,26.90
2023-06-11T09:27:40.219Z,26.90
2023-06-11T09:30:10.324Z,23.40
2023-06-11T09:32:40.756Z,23.20
2023-06-11T09:35:08.896Z,22.50
2023-06-11T09:37:44.638Z,22.70
2023-06-11T09:40:15.582Z,23.00
2023-06-11T09:42:44.727Z,23.50
2023-06-11T09:45:16.712Z,24.50
2023-06-11T09:47:44.464Z,25.00
2023-06-11T09:50:13.933Z,24.90
2023-06-11T09:52:41.948Z,24.50
2023-06-11T09:55:10.101Z,24.40
2023-06-11T09:57:41.715Z,24.80
2023-06-11T10:00:10.607Z,25.00
2023-06-11T10:02:39.861Z,25.20
2023-06-11T10:05:08.101Z,24.50
2023-06-11T10:07:40.878Z,24.80
2023-06-11T10:10:11.495Z,24.80
2023-06-11T10:12:38.751Z,25.00
2023-06-11T10:15:10.446Z,24.80
2023-06-11T10:17:44.631Z,25.10
2023-06-11T10:20:21.071Z,24.80
2023-06-11T10:22:48.155Z,25.00
2023-06-11T10:25:15.251Z,25.60
2023-06-11T10:27:43.726Z,25.10
2023-06-11T10:30:11.538Z,24.60
2023-06-11T10:32:50.051Z,23.20
2023-06-11T10:35:22.515Z,24.60
2023-06-11T10:37:49.474Z,24.20
2023-06-11T10:40:19.575Z,25.00
2023-06-11T10:42:52.401Z,24.90
2023-06-11T10:45:19.255Z,24.80
2023-06-11T10:47:47.645Z,25.00
2023-06-11T10:50:17.582Z,24.80
2023-06-11T10:52:48.826Z,23.60
2023-06-11T10:55:15.939Z,22.80
2023-06-11T10:57:43.349Z,24.40
2023-06-11T11:00:11.621Z,23.70
2023-06-11T11:02:39.421Z,24.00
2023-06-11T11:05:09.363Z,23.90
2023-06-11T11:07:38.115Z,23.00
2023-06-11T11:10:06.173Z,23.20
2023-06-11T11:12:38.556Z,23.40
2023-06-11T11:15:07.142Z,23.40
2023-06-11T11:17:34.818Z,23.90
2023-06-11T11:20:01.718Z,23.90
2023-06-11T11:22:28.893Z,24.20
2023-06-11T11:25:00.284Z,23.40
2023-06-11T11:27:27.147Z,23.60
2023-06-11T11:29:54.765Z,23.50
2023-06-11T11:32:22.318Z,23.30
2023-06-11T11:34:49.554Z,20.40
2023-06-11T11:37:16.523Z,23.30
2023-06-11T11:39:43.669Z,22.30
2023-06-11T11:42:11.823Z,21.80
2023-06-11T11:44:42.353Z,18.90
2023-06-11T11:47:10.031Z,18.20
2023-06-11T11:49:37.022Z,19.20
2023-06-11T11:52:05.772Z,20.60
2023-06-11T11:54:32.766Z,18.90
2023-06-11T11:57:02.214Z,19.10
2023-06-11T11:59:30.591Z,19.20
2023-06-11T12:01:58.473Z,19.80
2023-06-11T12:04:35.055Z,21.60
2023-06-11T12:07:05.812Z,20.10
2023-06-11T12:09:32.769Z,20.90
2023-06-11T12:12:04.898Z,19.80
2023-06-11T12:14:33.820Z,21.30
2023-06-11T12:17:00.946Z,20.80
2023-06-11T12:19:28.120Z,22.10
2023-06-11T12:21:54.913Z,22.60
2023-06-11T12:24:21.718Z,23.10
2023-06-11T12:26:50.742Z,22.80
2023-06-11T12:29:17.764Z,22.70
2023-06-11T12:31:46.489Z,23.00
2023-06-11T12:34:13.361Z,23.00
2023-06-11T12:36:40.460Z,23.70
2023-06-11T12:39:08.076Z,23.00
2023-06-11T12:41:35.050Z,23.10
2023-06-11T12:44:01.893Z,23.30
2023-06-11T12:46:28.710Z,23.70
2023-06-11T12:48:56.814Z,23.10
2023-06-11T12:51:23.956Z,23.30
2023-06-11T12:53:50.685Z,22.70
2023-06-11T12:56:19.159Z,22.60
2023-06-11T12:58:46.123Z,22.70
2023-06-11T13:01:12.897Z,22.20
2023-06-11T13:03:39.709Z,22.40
2023-06-11T13:06:07.982Z,21.60
2023-06-11T13:08:34.721Z,20.50
2023-06-11T13:11:01.486Z,22.40
2023-06-11T13:13:28.495Z,22.60
2023-06-11T13:15:56.992Z,21.80
2023-06-11T13:18:23.888Z,22.60
2023-06-11T13:20:50.840Z,21.00
2023-06-11T13:23:19.134Z,21.60
2023-06-11T13:25:48.300Z,20.80
2023-06-11T13:28:15.660Z,21.80
2023-06-11T13:30:42.466Z,20.90
2023-06-11T13:33:09.338Z,22.60
2023-06-11T13:35:36.159Z,21.10
2023-06-11T13:38:03.002Z,21.00
2023-06-11T13:40:31.095Z,22.20
2023-06-11T13:42:57.872Z,22.70
2023-06-11T13:45:24.640Z,21.80
2023-06-11T13:47:51.392Z,22.00
2023-06-11T13:50:18.285Z,21.30
2023-06-11T13:52:45.884Z,21.70
2023-06-11T13:55:12.817Z,21.20
2023-06-11T13:57:41.227Z,21.20
2023-06-11T14:00:09.413Z,20.30
2023-06-11T14:02:36.567Z,20.50
2023-06-11T14:05:03.592Z,21.60
2023-06-11T14:07:30.437Z,21.10
2023-06-11T14:09:57.204Z,21.20
2023-06-11T14:12:24.000Z,21.30
2023-06-11T14:14:52.161Z,18.90
2023-06-11T14:17:19.056Z,21.30
2023-06-11T14:19:46.261Z,21.00
2023-06-11T14:22:13.050Z,20.90
2023-06-11T14:24:39.747Z,21.40
2023-06-11T14:27:07.269Z,20.70
2023-06-11T14:29:34.139Z,20.80
2023-06-11T14:32:03.188Z,20.90
2023-06-11T14:34:30.631Z,20.90
2023-06-11T14:36:57.550Z,21.90
2023-06-11T14:39:24.389Z,20.50
2023-06-11T14:41:51.136Z,21.40
2023-06-11T14:44:17.966Z,20.20
2023-06-11T14:46:44.856Z,20.60
2023-06-11T14:49:17.917Z,20.90
2023-06-11T14:51:44.791Z,20.90
2023-06-11T14:54:11.513Z,21.20
2023-06-11T14:56:38.336Z,21.80
2023-06-11T14:59:05.138Z,21.40
2023-06-11T15:01:31.956Z,21.40
2023-06-11T15:03:58.802Z,19.20
2023-06-11T15:06:26.946Z,21.30
2023-06-11T15:08:53.682Z,20.60
2023-06-11T15:11:20.406Z,20.40
2023-06-11T15:13:47.168Z,19.10
2023-06-11T15:16:13.991Z,18.70
2023-06-11T15:18:40.992Z,20.60
2023-06-11T15:21:07.762Z,19.80
2023-06-11T15:23:35.939Z,20.90
2023-06-11T15:26:02.966Z,20.90
2023-06-11T15:28:30.573Z,19.80
2023-06-11T15:30:57.586Z,21.40
2023-06-11T15:33:24.254Z,20.30
2023-06-11T15:35:51.008Z,20.90
2023-06-11T15:38:17.696Z,20.60
2023-06-11T15:40:45.872Z,20.60
2023-06-11T15:43:12.580Z,20.80
2023-06-11T15:45:39.282Z,20.60
2023-06-11T15:48:06.400Z,20.70
2023-06-11T15:50:33.141Z,19.50
2023-06-11T15:52:59.890Z,20.60
2023-06-11T15:55:26.680Z,21.20
2023-06-11T15:57:54.740Z,20.50
2023-06-11T16:00:21.575Z,20.70
2023-06-11T16:02:48.457Z,20.90
2023-06-11T16:05:15.420Z,20.90
2023-06-11T16:07:42.168Z,21.60
2023-06-11T16:10:12.231Z,21.00
2023-06-11T16:12:40.846Z,20.30
2023-06-11T16:15:09.728Z,19.90
2023-06-11T16:17:36.515Z,19.70
2023-06-11T16:20:03.646Z,19.80
2023-06-11T16:22:30.391Z,19.90
2023-06-11T16:24:57.070Z,19.30
2023-06-11T16:27:23.753Z,21.10
2023-06-11T16:29:50.677Z,19.20
2023-06-11T16:32:18.728Z,20.70
2023-06-11T16:34:45.579Z,21.20
2023-06-11T16:37:12.368Z,20.70
2023-06-11T16:39:39.136Z,20.90
2023-06-11T16:42:06.889Z,20.00
2023-06-11T16:44:33.630Z,20.60
2023-06-11T16:47:00.443Z,20.90
2023-06-11T16:49:28.603Z,20.30
2023-06-11T16:51:55.340Z,20.90
2023-06-11T16:54:22.048Z,20.50
2023-06-11T16:56:48.846Z,21.10
2023-06-11T16:59:15.574Z,21.30
2023-06-11T17:01:42.523Z,21.40
2023-06-11T17:04:09.292Z,21.40
2023-06-11T17:06:37.408Z,21.40
2023-06-11T17:09:04.252Z,20.10
2023-06-11T17:11:30.995Z,21.20
2023-06-11T17:13:57.726Z,22.20
2023-06-11T17:16:24.430Z,21.10
2023-06-11T17:18:51.298Z,19.30
2023-06-11T17:21:18.058Z,19.10
2023-06-11T17:23:46.092Z,21.20
2023-06-11T17:26:15.663Z,20.30
2023-06-11T17:28:43.946Z,20.20
2023-06-11T17:31:10.624Z,20.50
2023-06-11T17:33:37.331Z,20.50
2023-06-11T17:36:04.569Z,21.00
2023-06-11T17:38:31.711Z,21.60
2023-06-11T17:40:59.764Z,21.80
2023-06-11T17:43:26.434Z,21.40
2023-06-11T17:45:53.257Z,21.70
2023-06-11T17:48:20.024Z,21.30
2023-06-11T17:50:46.756Z,21.00
2023-06-11T17:53:13.501Z,21.00
2023-06-11T17:55:40.210Z,21.50
2023-06-11T17:58:08.304Z,22.30
2023-06-11T18:00:35.121Z,21.50
2023-06-11T18:03:01.925Z,22.00
2023-06-11T18:05:28.658Z,21.50
2023-06-11T18:07:55.518Z,21.90
2023-06-11T18:10:22.272Z,22.20
2023-06-11T18:12:49.120Z,21.90
2023-06-11T18:15:32.084Z,22.10
2023-06-11T18:18:01.381Z,22.10
2023-06-11T18:20:28.384Z,22.70
2023-06-11T18:22:55.206Z,23.00
2023-06-11T18:25:22.223Z,23.10
2023-06-11T18:27:49.024Z,22.90
2023-06-11T18:30:17.114Z,22.70
2023-06-11T18:32:43.901Z,23.20
2023-06-11T18:35:11.329Z,23.80
2023-06-11T18:37:38.102Z,23.60
2023-06-11T18:40:06.486Z,23.60
2023-06-11T18:42:33.273Z,23.80
2023-06-11T18:45:00.032Z,24.20
2023-06-11T18:47:28.235Z,24.40
2023-06-11T18:49:55.004Z,24.20
2023-06-11T18:52:21.784Z,24.20
2023-06-11T18:54:48.586Z,24.30
2023-06-11T18:57:15.298Z,24.30
2023-06-11T18:59:42.032Z,24.50
2023-06-11T19:02:08.791Z,24.20
2023-06-11T19:04:36.839Z,24.50
2023-06-11T19:07:04.199Z,24.80
2023-06-11T19:09:30.950Z,24.40
2023-06-11T19:11:57.719Z,24.60
2023-06-11T19:14:27.699Z,24.70
2023-06-11T19:16:54.466Z,25.10
2023-06-11T19:19:21.353Z,25.60
2023-06-11T19:21:49.403Z,25.60
2023-06-11T19:24:16.161Z,25.20
2023-06-11T19:26:43.387Z,25.40
2023-06-11T19:29:10.358Z,25.40
2023-06-11T19:31:37.151Z,25.50
2023-06-11T19:34:04.289Z,25.60
2023-06-11T19:36:31.056Z,25.60
2023-06-11T19:38:59.116Z,25.70
2023-06-11T19:41:25.811Z,25.60
2023-06-11T19:43:52.473Z,26.00
2023-06-11T19:46:19.283Z,26.20
2023-06-11T19:48:45.992Z,26.20
2023-06-11T19:51:12.699Z,26.30
2023-06-11T19:53:39.422Z,26.40
2023-06-11T19:56:07.819Z,26.50
2023-06-11T19:58:34.803Z,26.60
2023-06-11T20:01:01.564Z,26.80
2023-06-11T20:03:28.945Z,26.90
2023-06-11T20:05:55.772Z,27.00
2023-06-11T20:08:22.513Z,27.10
2023-06-11T20:10:49.202Z,27.30
2023-06-11T20:13:17.240Z,27.40
2023-06-11T20:15:46.803Z,27.60
2023-06-11T20:18:13.496Z,27.90
2023-06-11T20:20:40.263Z,27.90
2023-06-11T20:23:06.933Z,27.90
2023-06-11T20:25:33.627Z,28.10
2023-06-11T20:28:00.350Z,28.10
2023-06-11T20:30:28.388Z,28.20
2023-06-11T20:32:55.209Z,28.10
2023-06-11T20:35:22.003Z,28.20
2023-06-11T20:37:48.707Z,28.30
2023-06-11T20:40:15.530Z,28.30
2023-06-11T20:42:42.225Z,28.50
2023-06-11T20:45:09.863Z,29.00
2023-06-11T20:47:38.194Z,28.60
2023-06-11T20:50:06.435Z,28.60
2023-06-11T20:52:33.150Z,28.60
2023-06-11T20:54:59.867Z,28.80
2023-06-11T20:57:26.712Z,28.80
2023-06-11T20:59:53.519Z,29.00
2023-06-11T21:02:20.297Z,29.00
2023-06-11T21:04:48.335Z,29.00
2023-06-11T21:07:15.031Z,29.10
2023-06-11T21:09:41.744Z,29.20
2023-06-11T21:12:09.144Z,29.20
2023-06-11T21:14:36.037Z,29.20
2023-06-11T21:17:02.740Z,29.30
2023-06-11T21:19:29.450Z,29.30
2023-06-11T21:21:57.488Z,29.90
2023-06-11T21:24:24.239Z,29.40
2023-06-11T21:26:50.981Z,29.50
2023-06-11T21:29:17.739Z,29.50
2023-06-11T21:31:44.519Z,29.60
2023-06-11T21:34:11.248Z,29.50
2023-06-11T21:36:37.982Z,29.60
2023-06-11T21:39:06.139Z,29.70
2023-06-11T21:41:32.843Z,29.70
2023-06-11T21:43:59.562Z,29.70
2023-06-11T21:46:26.441Z,29.70
2023-06-11T21:48:53.251Z,29.80
2023-06-11T21:51:20.100Z,29.80
2023-06-11T21:53:46.834Z,29.90
2023-06-11T21:56:15.062Z,29.90
2023-06-11T21:58:41.784Z,30.00
2023-06-11T22:01:08.550Z,30.00
2023-06-11T22:03:35.367Z,30.10
2023-06-11T22:06:02.102Z,30.10
2023-06-11T22:08:28.837Z,30.10
2023-06-11T22:10:55.538Z,30.20
2023-06-11T22:13:23.602Z,30.20
2023-06-11T22:15:50.336Z,30.30
2023-06-11T22:18:17.155Z,30.30
2023-06-11T22:20:43.929Z,30.40
2023-06-11T22:23:10.667Z,30.40
2023-06-11T22:25:37.480Z,30.40
2023-06-11T22:28:04.766Z,30.50
2023-06-11T22:30:52.310Z,30.40
2023-06-11T22:33:19.634Z,30.50
2023-06-11T22:35:46.369Z,30.50
2023-06-11T22:38:13.054Z,30.60
2023-06-11T22:40:39.823Z,30.60
2023-06-11T22:43:06.537Z,30.80
2023-06-11T22:45:34.545Z,30.70
2023-06-11T22:48:01.276Z,30.70
2023-06-11T22:50:28.177Z,30.80
2023-06-11T22:52:54.957Z,30.90
2023-06-11T22:55:21.709Z,31.00
2023-06-11T22:57:48.426Z,31.00
2023-06-11T23:00:15.802Z,31.00
2023-06-11T23:02:43.988Z,31.00
2023-06-11T23:05:10.981Z,31.10
2023-06-11T23:07:37.925Z,30.90
2023-06-11T23:10:05.425Z,30.90
2023-06-11T23:12:32.228Z,30.90
2023-06-11T23:14:58.942Z,30.90
2023-06-11T23:17:25.660Z,30.80
2023-06-11T23:19:53.730Z,30.80
2023-06-11T23:22:20.451Z,30.90
2023-06-11T23:24:47.124Z,30.80
2023-06-11T23:27:16.255Z,30.90
2023-06-11T23:29:43.304Z,30.90
2023-06-11T23:32:10.089Z,30.80
2023-06-11T23:34:36.854Z,30.90
2023-06-11T23:37:05.072Z,30.90
2023-06-11T23:39:31.769Z,31.00
2023-06-11T23:41:58.581Z,30.90
2023-06-11T23:44:25.258Z,30.90
2023-06-11T23:46:51.942Z,30.90
2023-06-11T23:49:18.685Z,31.00
2023-06-11T23:51:45.565Z,31.10
2023-06-11T23:54:13.641Z,31.30
2023-06-11T23:56:40.479Z,31.20
2023-06-11T23:59:07.433Z,31.20
